createdAt,value
2023-03-29T00:01:05.834Z,12.83
2023-03-29T00:03:50.350Z,12.72
2023-03-29T00:06:22.560Z,12.58
2023-03-29T00:08:56.183Z,12.74
2023-03-29T00:11:23.477Z,12.67
2023-03-29T00:13:53.690Z,12.65
2023-03-29T00:16:25.728Z,12.61
2023-03-29T00:18:55.598Z,12.48
2023-03-29T00:21:38.149Z,12.72
2023-03-29T00:24:08.129Z,12.64
2023-03-29T00:26:40.703Z,12.53
2023-03-29T00:29:10.091Z,11.70
2023-03-29T00:31:38.050Z,12.66
2023-03-29T00:34:04.815Z,12.35
2023-03-29T00:36:33.087Z,12.03
2023-03-29T00:39:03.071Z,12.19
2023-03-29T00:41:35.666Z,11.99
2023-03-29T00:44:12.974Z,12.46
2023-03-29T00:46:40.050Z,12.67
2023-03-29T00:49:17.790Z,12.74
2023-03-29T00:51:45.070Z,12.57
2023-03-29T00:54:26.242Z,12.79
2023-03-29T00:57:00.601Z,12.84
2023-03-29T00:59:35.824Z,12.76
2023-03-29T01:02:07.445Z,12.73
2023-03-29T01:05:17.525Z,12.89
2023-03-29T01:07:58.297Z,12.57
2023-03-29T01:10:50.635Z,12.92
2023-03-29T01:13:29.723Z,12.93
2023-03-29T01:18:44.375Z,12.76
2023-03-29T01:21:17.166Z,12.76
2023-03-29T01:24:11.069Z,12.50
2023-03-29T01:26:56.977Z,13.04
2023-03-29T01:29:50.242Z,12.95
2023-03-29T01:32:37.859Z,12.92
2023-03-29T01:35:10.663Z,12.95
2023-03-29T01:38:13.680Z,13.08
2023-03-29T01:40:43.235Z,12.94
2023-03-29T01:43:34.378Z,13.06
2023-03-29T01:46:27.220Z,13.06
2023-03-29T01:49:05.657Z,13.06
2023-03-29T01:51:45.782Z,12.99
2023-03-29T01:54:53.164Z,13.14
2023-03-29T01:57:30.368Z,12.96
2023-03-29T02:00:05.040Z,13.15
2023-03-29T02:02:33.016Z,13.16
2023-03-29T02:05:01.347Z,13.13
2023-03-29T02:07:32.482Z,12.68
2023-03-29T02:10:16.758Z,13.31
2023-03-29T02:15:35.159Z,12.99
2023-03-29T02:18:04.119Z,12.92
2023-03-29T02:20:52.210Z,12.40
2023-03-29T02:23:35.460Z,12.70
2023-03-29T02:26:16.681Z,12.65
2023-03-29T02:28:43.518Z,13.04
2023-03-29T02:31:23.345Z,13.04
2023-03-29T02:34:06.733Z,12.95
2023-03-29T02:36:55.147Z,12.96
2023-03-29T02:39:25.420Z,13.01
2023-03-29T02:42:00.789Z,12.81
2023-03-29T02:44:33.526Z,13.01
2023-03-29T02:47:33.666Z,12.97
2023-03-29T02:50:14.628Z,12.92
2023-03-29T02:52:54.150Z,13.06
2023-03-29T02:55:35.706Z,13.03
2023-03-29T02:58:10.490Z,12.79
2023-03-29T03:00:47.454Z,12.69
2023-03-29T03:03:20.503Z,12.96
2023-03-29T03:05:54.946Z,12.87
2023-03-29T03:08:43.114Z,12.80
2023-03-29T03:11:19.695Z,12.90
2023-03-29T03:13:59.689Z,12.90
2023-03-29T03:16:29.976Z,12.95
2023-03-29T03:19:05.312Z,12.81
2023-03-29T03:21:41.382Z,12.82
2023-03-29T03:24:10.770Z,12.68
2023-03-29T03:26:38.943Z,12.63
2023-03-29T03:29:06.369Z,12.46
2023-03-29T03:31:33.733Z,12.15
2023-03-29T03:34:07.639Z,12.73
2023-03-29T03:36:38.701Z,12.67
2023-03-29T03:39:07.371Z,12.67
2023-03-29T03:42:00.476Z,12.14
2023-03-29T03:44:34.651Z,12.48
2023-03-29T03:47:05.980Z,12.23
2023-03-29T03:49:33.070Z,12.15
2023-03-29T03:52:20.670Z,12.61
2023-03-29T03:54:48.458Z,12.68
2023-03-29T03:57:15.221Z,12.70
2023-03-29T03:59:45.048Z,12.52
2023-03-29T04:02:11.724Z,12.43
2023-03-29T04:04:39.498Z,12.33
2023-03-29T04:07:09.722Z,12.17
2023-03-29T04:09:37.801Z,12.27
2023-03-29T04:12:08.555Z,12.26
2023-03-29T04:14:42.588Z,12.27
2023-03-29T04:17:14.920Z,12.19
2023-03-29T04:19:51.722Z,12.23
2023-03-29T04:22:18.520Z,12.17
2023-03-29T04:24:45.254Z,12.08
2023-03-29T04:27:12.022Z,11.85
2023-03-29T04:29:39.342Z,11.99
2023-03-29T04:32:06.225Z,11.89
2023-03-29T04:34:45.673Z,12.06
2023-03-29T04:37:17.572Z,11.80
2023-03-29T04:39:53.529Z,11.64
2023-03-29T04:42:23.601Z,12.02
2023-03-29T04:45:00.784Z,11.94
2023-03-29T04:47:39.664Z,10.63
2023-03-29T04:50:08.320Z,11.88
2023-03-29T04:53:24.567Z,11.13
2023-03-29T04:56:08.687Z,11.51
2023-03-29T04:58:35.332Z,10.90
2023-03-29T05:01:12.648Z,11.60
2023-03-29T05:04:20.486Z,11.21
2023-03-29T05:06:47.570Z,11.53
2023-03-29T05:09:39.140Z,11.72
2023-03-29T05:12:06.636Z,11.46
2023-03-29T05:14:45.893Z,11.40
2023-03-29T05:17:29.118Z,10.45
2023-03-29T05:20:03.007Z,11.15
2023-03-29T05:22:33.047Z,11.70
2023-03-29T05:25:05.214Z,11.72
2023-03-29T05:27:35.230Z,11.74
2023-03-29T05:30:02.007Z,11.76
2023-03-29T05:32:30.319Z,11.48
2023-03-29T05:34:57.026Z,11.57
2023-03-29T05:37:23.621Z,11.65
2023-03-29T05:40:10.255Z,11.60
2023-03-29T05:42:41.232Z,11.24
2023-03-29T05:45:08.460Z,11.69
2023-03-29T05:47:35.393Z,11.68
2023-03-29T05:50:02.487Z,11.66
2023-03-29T05:52:29.315Z,11.45
2023-03-29T05:54:57.003Z,11.57
2023-03-29T05:57:33.350Z,10.56
2023-03-29T06:00:30.413Z,11.46
2023-03-29T06:03:54.971Z,11.80
2023-03-29T06:06:38.953Z,11.71
2023-03-29T06:09:10.214Z,11.52
2023-03-29T06:11:42.943Z,11.76
2023-03-29T06:14:13.322Z,11.66
2023-03-29T06:16:54.342Z,11.81
2023-03-29T06:23:02.207Z,11.97
2023-03-29T06:25:29.042Z,12.07
2023-03-29T06:27:55.780Z,11.72
2023-03-29T06:30:26.056Z,12.23
2023-03-29T06:33:09.098Z,12.19
2023-03-29T06:35:54.790Z,12.46
2023-03-29T06:38:26.394Z,12.02
2023-03-29T06:41:22.402Z,12.34
2023-03-29T06:43:55.226Z,12.70
2023-03-29T06:46:45.472Z,12.60
2023-03-29T06:49:42.241Z,12.78
2023-03-29T06:52:23.772Z,12.66
2023-03-29T06:54:52.296Z,12.88
2023-03-29T06:57:36.496Z,12.93
2023-03-29T07:00:13.546Z,12.81
2023-03-29T07:02:45.427Z,12.90
2023-03-29T07:05:36.647Z,12.92
2023-03-29T07:08:12.401Z,12.95
2023-03-29T07:10:47.203Z,13.09
2023-03-29T07:13:19.881Z,12.96
2023-03-29T07:15:46.668Z,13.23
2023-03-29T07:18:31.100Z,12.47
2023-03-29T07:21:12.856Z,13.17
2023-03-29T07:23:42.387Z,12.42
2023-03-29T07:26:09.561Z,13.21
2023-03-29T07:28:41.679Z,12.52
2023-03-29T07:31:11.256Z,13.43
2023-03-29T07:33:42.687Z,13.54
2023-03-29T07:36:10.212Z,13.31
2023-03-29T07:38:41.826Z,13.05
2023-03-29T07:41:08.758Z,12.92
2023-03-29T07:46:23.199Z,13.70
2023-03-29T07:51:35.997Z,13.14
2023-03-29T07:54:02.822Z,13.84
2023-03-29T07:56:35.355Z,13.97
2023-03-29T07:59:09.880Z,13.12
2023-03-29T08:01:44.741Z,13.68
2023-03-29T08:04:11.538Z,14.01
2023-03-29T08:06:40.869Z,14.13
2023-03-29T08:09:14.573Z,13.99
2023-03-29T08:11:44.580Z,13.65
2023-03-29T08:14:22.293Z,14.11
2023-03-29T08:16:55.251Z,14.19
2023-03-29T08:19:50.992Z,14.24
2023-03-29T08:22:18.929Z,14.04
2023-03-29T08:24:47.247Z,14.27
2023-03-29T08:27:17.024Z,14.60
2023-03-29T08:29:46.365Z,14.48
2023-03-29T08:32:15.248Z,14.50
2023-03-29T08:34:47.499Z,14.47
2023-03-29T08:37:17.414Z,14.66
2023-03-29T08:39:44.234Z,14.48
2023-03-29T08:42:47.447Z,14.58
2023-03-29T08:48:36.806Z,14.66
2023-03-29T08:51:10.440Z,14.62
2023-03-29T08:53:50.246Z,14.57
2023-03-29T08:56:44.395Z,14.75
2023-03-29T08:59:44.673Z,14.65
2023-03-29T09:02:26.488Z,15.04
2023-03-29T09:05:03.522Z,14.69
2023-03-29T09:07:42.773Z,13.97
2023-03-29T09:10:18.461Z,15.13
2023-03-29T09:13:11.899Z,14.66
2023-03-29T09:16:12.524Z,15.26
2023-03-29T09:19:05.207Z,15.34
2023-03-29T09:21:57.892Z,15.37
2023-03-29T09:24:24.675Z,15.48
2023-03-29T09:27:41.503Z,15.55
2023-03-29T09:30:28.698Z,15.73
2023-03-29T09:33:21.766Z,15.93
2023-03-29T09:36:05.742Z,15.89
2023-03-29T09:38:48.057Z,16.00
2023-03-29T09:41:54.522Z,16.17
2023-03-29T09:44:31.377Z,16.42
2023-03-29T09:47:21.897Z,16.47
2023-03-29T09:49:57.685Z,16.43
2023-03-29T09:52:28.196Z,16.21
2023-03-29T09:55:03.935Z,16.68
2023-03-29T09:57:39.675Z,16.65
2023-03-29T10:00:14.371Z,16.99
2023-03-29T10:02:41.382Z,16.47
2023-03-29T10:05:11.572Z,16.74
2023-03-29T10:07:49.066Z,16.30
2023-03-29T10:10:23.542Z,16.98
2023-03-29T10:13:04.071Z,15.86
2023-03-29T10:15:59.179Z,16.78
2023-03-29T10:18:27.797Z,16.70
2023-03-29T10:21:06.028Z,17.11
2023-03-29T10:23:39.289Z,17.46
2023-03-29T10:26:25.186Z,17.38
2023-03-29T10:28:57.376Z,17.38
2023-03-29T10:31:25.371Z,17.65
2023-03-29T10:33:57.394Z,16.63
2023-03-29T10:36:27.037Z,17.78
2023-03-29T10:38:58.336Z,17.58
2023-03-29T10:42:04.182Z,17.80
2023-03-29T10:44:40.057Z,17.52
2023-03-29T10:47:20.800Z,17.57
2023-03-29T10:50:04.068Z,18.05
2023-03-29T10:52:30.759Z,18.19
2023-03-29T10:58:48.737Z,18.48
2023-03-29T11:01:28.895Z,18.70
2023-03-29T11:03:59.051Z,18.74
2023-03-29T11:07:12.252Z,18.96
2023-03-29T11:09:53.242Z,19.14
2023-03-29T11:12:54.067Z,18.47
2023-03-29T11:15:59.408Z,19.18
2023-03-29T11:18:54.924Z,19.43
2023-03-29T11:21:48.549Z,19.11
2023-03-29T11:24:18.888Z,19.61
2023-03-29T11:27:36.696Z,19.33
2023-03-29T11:30:45.044Z,19.49
2023-03-29T11:33:37.730Z,19.94
2023-03-29T11:36:16.821Z,20.02
2023-03-29T11:39:10.402Z,19.98
2023-03-29T11:41:43.502Z,19.72
2023-03-29T11:44:31.873Z,19.18
2023-03-29T11:47:44.746Z,19.32
2023-03-29T11:51:11.430Z,19.36
2023-03-29T11:54:10.944Z,19.58
2023-03-29T11:56:46.943Z,19.68
2023-03-29T12:02:39.285Z,20.31
2023-03-29T12:05:24.126Z,20.03
2023-03-29T12:08:16.828Z,20.78
2023-03-29T12:10:52.722Z,20.28
2023-03-29T12:13:47.460Z,19.57
2023-03-29T12:16:23.275Z,20.93
2023-03-29T12:18:57.310Z,20.83
2023-03-29T12:21:29.850Z,20.76
2023-03-29T12:23:57.568Z,20.56
2023-03-29T12:26:40.631Z,20.58
2023-03-29T12:29:43.546Z,20.34
2023-03-29T12:32:23.339Z,20.14
2023-03-29T12:35:21.062Z,20.20
2023-03-29T12:38:25.509Z,20.22
2023-03-29T12:41:08.100Z,20.17
2023-03-29T12:43:40.165Z,20.09
2023-03-29T12:46:26.749Z,19.69
2023-03-29T12:48:57.585Z,19.53
2023-03-29T12:51:33.130Z,19.08
2023-03-29T12:54:28.065Z,19.73
2023-03-29T12:57:04.728Z,19.50
2023-03-29T12:59:34.157Z,19.68
2023-03-29T13:02:37.830Z,19.50
2023-03-29T13:05:05.711Z,19.50
2023-03-29T13:07:46.143Z,19.25
2023-03-29T13:11:01.634Z,18.76
2023-03-29T13:13:48.586Z,19.18
2023-03-29T13:16:18.255Z,19.16
2023-03-29T13:19:00.389Z,18.86
2023-03-29T13:21:51.066Z,18.83
2023-03-29T13:24:55.554Z,18.94
2023-03-29T13:27:26.378Z,18.76
2023-03-29T13:30:11.742Z,18.99
2023-03-29T13:33:09.446Z,18.97
2023-03-29T13:35:54.816Z,18.77
2023-03-29T13:38:35.999Z,18.51
2023-03-29T13:41:05.367Z,17.44
2023-03-29T13:43:52.679Z,18.36
2023-03-29T13:46:25.800Z,18.43
2023-03-29T13:49:31.765Z,18.17
2023-03-29T13:52:21.713Z,18.65
2023-03-29T13:55:14.185Z,18.50
2023-03-29T13:58:02.416Z,18.14
2023-03-29T14:00:53.945Z,18.27
2023-03-29T14:03:36.556Z,18.72
2023-03-29T14:06:06.453Z,18.24
2023-03-29T14:08:42.360Z,18.48
2023-03-29T14:11:24.326Z,18.06
2023-03-29T14:14:02.529Z,18.27
2023-03-29T14:16:36.104Z,18.38
2023-03-29T14:19:21.604Z,17.98
2023-03-29T14:21:50.497Z,18.26
2023-03-29T14:24:21.589Z,18.09
2023-03-29T14:26:48.440Z,18.18
2023-03-29T14:29:15.880Z,18.07
2023-03-29T14:31:46.228Z,18.48
2023-03-29T14:34:37.784Z,18.28
2023-03-29T14:37:05.948Z,18.43
2023-03-29T14:39:35.246Z,18.46
2023-03-29T14:42:34.888Z,17.90
2023-03-29T14:45:06.102Z,18.19
2023-03-29T14:47:37.071Z,18.09
2023-03-29T14:50:05.029Z,17.89
2023-03-29T14:52:35.104Z,18.33
2023-03-29T14:55:05.413Z,18.06
2023-03-29T14:57:49.441Z,18.28
2023-03-29T15:00:47.727Z,18.06
2023-03-29T15:03:27.639Z,18.41
2023-03-29T15:05:59.086Z,18.05
2023-03-29T15:08:37.977Z,18.15
2023-03-29T15:11:17.788Z,17.79
2023-03-29T15:13:46.813Z,18.09
2023-03-29T15:16:22.361Z,18.11
2023-03-29T15:19:04.049Z,18.12
2023-03-29T15:21:36.495Z,18.00
2023-03-29T15:24:04.743Z,17.82
2023-03-29T15:26:45.668Z,17.96
2023-03-29T15:29:23.838Z,17.71
2023-03-29T15:31:59.156Z,17.80
2023-03-29T15:34:30.731Z,18.01
2023-03-29T15:36:58.089Z,18.18
2023-03-29T15:39:27.812Z,18.31
2023-03-29T15:41:57.094Z,18.10
2023-03-29T15:44:33.642Z,18.21
2023-03-29T15:47:14.034Z,18.12
2023-03-29T15:49:40.708Z,18.02
2023-03-29T15:52:07.501Z,18.16
2023-03-29T15:54:45.627Z,18.26
2023-03-29T15:57:16.309Z,18.04
2023-03-29T15:59:43.893Z,18.10
2023-03-29T16:02:18.934Z,17.92
2023-03-29T16:04:46.560Z,18.10
2023-03-29T16:07:22.368Z,17.84
2023-03-29T16:09:56.657Z,17.86
2023-03-29T16:12:23.410Z,17.66
2023-03-29T16:14:58.134Z,17.99
2023-03-29T16:17:34.803Z,17.49
2023-03-29T16:20:11.638Z,17.94
2023-03-29T16:22:38.318Z,18.01
2023-03-29T16:25:16.313Z,17.97
2023-03-29T16:27:47.062Z,17.94
2023-03-29T16:30:14.121Z,17.79
2023-03-29T16:32:41.678Z,17.83
2023-03-29T16:35:32.127Z,17.77
2023-03-29T16:38:00.977Z,17.66
2023-03-29T16:40:28.078Z,17.74
2023-03-29T16:42:54.887Z,17.77
2023-03-29T16:45:21.944Z,17.58
2023-03-29T16:47:48.839Z,17.72
2023-03-29T16:50:26.340Z,17.53
2023-03-29T16:52:53.129Z,17.56
2023-03-29T16:55:22.000Z,17.67
2023-03-29T16:57:54.005Z,17.59
2023-03-29T17:03:02.189Z,17.36
2023-03-29T17:05:38.052Z,16.55
2023-03-29T17:08:04.807Z,16.32
2023-03-29T17:11:14.704Z,17.32
2023-03-29T17:16:53.681Z,17.29
2023-03-29T17:19:22.906Z,16.81
2023-03-29T17:21:52.333Z,17.22
2023-03-29T17:24:19.002Z,17.17
2023-03-29T17:26:46.061Z,16.96
2023-03-29T17:29:12.840Z,17.05
2023-03-29T17:31:47.000Z,16.96
2023-03-29T17:34:15.737Z,15.94
2023-03-29T17:36:42.469Z,16.95
2023-03-29T17:39:18.035Z,16.79
2023-03-29T17:41:46.110Z,16.93
2023-03-29T17:44:12.812Z,16.92
2023-03-29T17:46:39.711Z,16.93
2023-03-29T17:49:06.539Z,16.97
2023-03-29T17:51:37.244Z,16.90
2023-03-29T17:54:06.878Z,16.67
2023-03-29T17:56:34.178Z,16.72
2023-03-29T17:59:01.223Z,16.97
2023-03-29T18:01:32.168Z,16.57
2023-03-29T18:03:59.173Z,16.82
2023-03-29T18:06:28.710Z,16.16
2023-03-29T18:09:01.837Z,16.78
2023-03-29T18:11:29.493Z,15.41
2023-03-29T18:13:59.563Z,16.72
2023-03-29T18:16:30.117Z,16.55
2023-03-29T18:19:00.724Z,16.17
2023-03-29T18:21:37.524Z,15.89
2023-03-29T18:24:11.002Z,15.38
2023-03-29T18:26:41.066Z,15.46
2023-03-29T18:29:59.049Z,16.65
2023-03-29T18:32:36.142Z,16.68
2023-03-29T18:35:11.577Z,15.23
2023-03-29T18:37:47.091Z,15.96
2023-03-29T18:40:15.793Z,16.00
2023-03-29T18:42:46.080Z,16.33
2023-03-29T18:45:16.135Z,16.32
2023-03-29T18:47:42.776Z,16.00
2023-03-29T18:50:10.503Z,16.23
2023-03-29T18:52:37.819Z,16.19
2023-03-29T18:55:10.823Z,16.00
2023-03-29T18:57:37.618Z,16.11
2023-03-29T19:00:10.866Z,16.13
2023-03-29T19:02:44.171Z,15.84
2023-03-29T19:05:11.403Z,15.99
2023-03-29T19:07:49.508Z,16.02
2023-03-29T19:10:24.119Z,16.06
2023-03-29T19:12:51.684Z,16.00
2023-03-29T19:15:28.969Z,16.22
2023-03-29T19:17:57.094Z,16.36
2023-03-29T19:20:27.282Z,15.46
2023-03-29T19:23:14.869Z,15.98
2023-03-29T19:25:58.186Z,16.11
2023-03-29T19:28:28.603Z,15.10
2023-03-29T19:30:57.898Z,16.09
2023-03-29T19:33:24.647Z,15.81
2023-03-29T19:35:52.634Z,16.05
2023-03-29T19:38:34.836Z,16.05
2023-03-29T19:41:19.404Z,15.87
2023-03-29T19:44:11.199Z,16.03
2023-03-29T19:46:50.421Z,15.65
2023-03-29T19:49:17.384Z,15.86
2023-03-29T19:51:45.197Z,15.74
2023-03-29T19:57:10.703Z,15.89
2023-03-29T19:59:43.117Z,15.66
2023-03-29T20:02:25.496Z,15.82
2023-03-29T20:04:54.077Z,15.68
2023-03-29T20:07:21.138Z,15.55
2023-03-29T20:09:49.595Z,15.78
2023-03-29T20:12:32.980Z,15.47
2023-03-29T20:15:00.275Z,15.15
2023-03-29T20:17:29.604Z,15.38
2023-03-29T20:20:11.094Z,14.99
2023-03-29T20:22:48.070Z,15.67
2023-03-29T20:25:21.085Z,15.67
2023-03-29T20:27:49.685Z,15.74
2023-03-29T20:30:22.581Z,15.74
2023-03-29T20:32:52.324Z,15.72
2023-03-29T20:35:19.074Z,15.67
2023-03-29T20:37:48.768Z,15.63
2023-03-29T20:40:16.822Z,15.22
2023-03-29T20:42:46.404Z,15.68
2023-03-29T20:45:20.394Z,15.81
2023-03-29T20:48:06.836Z,15.71
2023-03-29T20:50:42.142Z,15.70
2023-03-29T20:53:08.841Z,15.88
2023-03-29T20:55:45.183Z,15.28
2023-03-29T20:58:12.101Z,15.81
2023-03-29T21:00:42.169Z,15.65
2023-03-29T21:03:12.792Z,15.63
2023-03-29T21:08:29.054Z,15.68
2023-03-29T21:11:17.351Z,15.71
2023-03-29T21:13:44.224Z,14.75
2023-03-29T21:16:11.699Z,14.40
2023-03-29T21:18:47.873Z,15.37
2023-03-29T21:21:16.949Z,15.41
2023-03-29T21:23:48.399Z,15.67
2023-03-29T21:26:27.353Z,15.47
2023-03-29T21:28:57.893Z,14.89
2023-03-29T21:31:47.339Z,14.72
2023-03-29T21:34:22.704Z,15.76
2023-03-29T21:36:50.184Z,15.15
2023-03-29T21:39:19.804Z,15.11
2023-03-29T21:41:46.477Z,15.30
2023-03-29T21:44:18.572Z,15.30
2023-03-29T21:46:48.639Z,15.06
2023-03-29T21:49:16.090Z,15.48
2023-03-29T21:51:42.714Z,15.52
2023-03-29T21:54:12.044Z,15.62
2023-03-29T21:56:39.686Z,15.05
2023-03-29T21:59:09.587Z,15.15
2023-03-29T22:01:48.234Z,14.19
2023-03-29T22:04:25.811Z,15.57
2023-03-29T22:07:15.504Z,15.58
2023-03-29T22:09:55.212Z,15.30
2023-03-29T22:12:34.858Z,15.83
2023-03-29T22:15:08.822Z,15.76
2023-03-29T22:17:37.619Z,15.68
2023-03-29T22:20:29.525Z,15.55
2023-03-29T22:25:40.923Z,15.72
2023-03-29T22:28:39.136Z,15.71
2023-03-29T22:31:14.767Z,15.76
2023-03-29T22:33:48.815Z,14.48
2023-03-29T22:36:33.567Z,15.68
2023-03-29T22:39:03.863Z,15.32
2023-03-29T22:41:30.694Z,15.45
2023-03-29T22:44:26.257Z,15.55
2023-03-29T22:46:55.811Z,15.50
2023-03-29T22:49:27.919Z,15.57
2023-03-29T22:51:56.626Z,15.53
2023-03-29T22:54:32.886Z,15.14
2023-03-29T22:57:05.808Z,15.58
2023-03-29T22:59:32.523Z,15.64
2023-03-29T23:02:01.587Z,15.60
2023-03-29T23:04:39.519Z,15.21
2023-03-29T23:07:06.691Z,15.47
2023-03-29T23:09:33.696Z,15.31
2023-03-29T23:12:05.581Z,15.45
2023-03-29T23:14:34.040Z,15.55
2023-03-29T23:17:05.342Z,15.66
2023-03-29T23:19:35.011Z,15.48
2023-03-29T23:22:04.163Z,15.28
2023-03-29T23:24:30.924Z,15.34
2023-03-29T23:27:07.848Z,15.54
2023-03-29T23:29:42.198Z,15.36
2023-03-29T23:32:11.609Z,15.70
2023-03-29T23:35:00.725Z,15.30
2023-03-29T23:37:35.171Z,15.37
2023-03-29T23:40:44.373Z,15.62
2023-03-29T23:43:11.480Z,15.40
2023-03-29T23:45:45.493Z,15.07
2023-03-29T23:48:14.721Z,15.05
2023-03-29T23:50:46.462Z,15.41
2023-03-29T23:53:16.007Z,15.27
2023-03-29T23:55:43.659Z,15.36
2023-03-29T23:58:16.705Z,15.38
